Time;durP1;ratioP1;P1;durP2;ratioP2;P2;SDS_P1;SDS_P2;PMS_P1;PMS_P2;Temp;Humidity;BMP_temperature;BMP_pressure;BME280_temperature;BME280_humidity;BME280_pressure;Samples;Min_cycle;Max_cycle;Signal;HPM_P1;HPM_P2
2024/01/18 00:00:23;;;;;;;28.67;19.27;;;;;;;4.76;64.81;94007.84;4197513;28;20147;-66
2024/01/18 00:02:24;;;;;;;25.20;18.42;;;;;;;4.61;65.17;93982.31;4202347;28;20060;-66
2024/01/18 00:04:26;;;;;;;22.42;17.45;;;;;;;4.57;65.69;93993.94;4203170;28;20086;-64
2024/01/18 00:06:33;;;;;;;22.13;17.17;;;;;;;4.58;65.76;93999.94;4209733;28;20040;-67
2024/01/18 00:08:35;;;;;;;23.20;18.33;;;;;;;4.48;65.21;93976.63;4202123;28;20444;-68
2024/01/18 00:10:37;;;;;;;22.20;16.77;;;;;;;4.48;66.44;93985.22;4193997;28;20356;-65
2024/01/18 00:12:39;;;;;;;27.23;18.13;;;;;;;4.64;65.77;93986.41;4198103;28;20509;-65
2024/01/18 00:14:41;;;;;;;24.20;17.95;;;;;;;4.79;65.12;93979.81;4204152;28;20048;-66
2024/01/18 00:16:43;;;;;;;23.77;18.23;;;;;;;4.85;65.88;93974.06;4208662;28;20106;-65
2024/01/18 00:18:45;;;;;;;22.10;16.52;;;;;;;4.92;64.67;93964.72;4208269;28;20051;-67
2024/01/18 00:20:47;;;;;;;21.00;17.17;;;;;;;4.90;64.96;93969.28;4196704;28;20132;-65
2024/01/18 00:22:49;;;;;;;22.17;17.65;;;;;;;5.00;65.16;93973.59;4199413;28;20047;-68
2024/01/18 00:24:51;;;;;;;24.85;17.48;;;;;;;5.17;65.05;93978.03;4204768;28;20587;-64
2024/01/18 00:26:53;;;;;;;24.52;16.90;;;;;;;5.22;64.80;93962.00;4201786;28;20047;-66
2024/01/18 00:28:55;;;;;;;20.00;15.23;;;;;;;5.24;65.37;93966.09;4199140;28;20445;-67
2024/01/18 00:30:57;;;;;;;23.88;16.67;;;;;;;5.27;65.06;93957.19;4194911;28;20057;-66
2024/01/18 00:32:59;;;;;;;22.00;16.45;;;;;;;5.21;65.07;93965.59;4205553;28;21193;-66
2024/01/18 00:35:01;;;;;;;21.50;16.48;;;;;;;5.20;65.13;93972.53;4203660;28;20414;-65
2024/01/18 00:37:03;;;;;;;20.02;16.30;;;;;;;5.26;65.87;93974.56;4198703;28;20048;-66
2024/01/18 00:39:10;;;;;;;23.10;16.80;;;;;;;5.39;65.11;93978.59;4201666;28;20118;-64
2024/01/18 00:41:12;;;;;;;22.13;16.35;;;;;;;5.50;64.73;93962.81;4194709;28;20502;-65
2024/01/18 00:43:14;;;;;;;23.75;17.20;;;;;;;5.64;64.91;93951.94;4198676;28;20053;-65
2024/01/18 00:45:16;;;;;;;19.45;15.88;;;;;;;5.73;64.36;93963.22;4196641;28;20048;-66
2024/01/18 00:47:19;;;;;;;22.40;17.55;;;;;;;5.77;63.80;93966.34;4204533;28;20491;-67
2024/01/18 00:49:21;;;;;;;23.90;17.75;;;;;;;5.80;64.17;93963.44;4196323;28;20583;-66
2024/01/18 00:51:23;;;;;;;21.67;17.55;;;;;;;5.80;64.09;93958.25;4206979;28;20121;-66
2024/01/18 00:53:25;;;;;;;20.52;15.18;;;;;;;5.69;64.21;93962.69;4195365;28;20070;-67
2024/01/18 00:55:27;;;;;;;21.90;17.08;;;;;;;5.72;64.55;93958.97;4201870;28;20060;-67
2024/01/18 00:57:29;;;;;;;24.33;16.27;;;;;;;5.70;64.22;93953.94;4199892;28;20641;-66
2024/01/18 00:59:31;;;;;;;25.48;17.33;;;;;;;5.40;65.63;93949.06;4204256;28;20051;-65
2024/01/18 01:01:33;;;;;;;22.35;16.80;;;;;;;5.44;66.12;93953.84;4208289;28;20387;-67
2024/01/18 01:03:35;;;;;;;23.52;17.13;;;;;;;5.48;66.06;93944.75;4206364;28;20052;-65
2024/01/18 01:05:37;;;;;;;23.95;17.27;;;;;;;5.45;66.38;93936.47;4201680;28;20109;-67
2024/01/18 01:07:39;;;;;;;20.02;16.05;;;;;;;5.51;67.33;93934.09;4199098;28;20049;-66
2024/01/18 01:09:41;;;;;;;22.50;17.15;;;;;;;5.59;66.58;93935.94;4198367;28;20059;-67
2024/01/18 01:11:43;;;;;;;22.17;17.63;;;;;;;5.45;66.85;93928.66;4198752;28;20052;-67
2024/01/18 01:13:45;;;;;;;20.15;16.48;;;;;;;5.43;67.90;93928.00;4193698;28;20523;-68
2024/01/18 01:15:47;;;;;;;24.55;17.83;;;;;;;5.49;67.52;93924.81;4200478;28;20151;-65
2024/01/18 01:17:49;;;;;;;20.40;17.55;;;;;;;5.57;67.75;93914.53;4201473;28;20036;-65
2024/01/18 01:19:51;;;;;;;23.00;17.25;;;;;;;5.67;67.42;93919.63;4202325;28;20533;-67
2024/01/18 01:21:53;;;;;;;23.60;19.00;;;;;;;5.42;68.46;93902.97;4193731;28;20182;-67
2024/01/18 01:23:56;;;;;;;24.25;19.35;;;;;;;5.24;69.94;93897.78;4207620;28;20529;-66
2024/01/18 01:25:58;;;;;;;22.92;18.02;;;;;;;5.29;69.64;93893.78;4201571;28;20048;-66
2024/01/18 01:28:00;;;;;;;23.08;17.13;;;;;;;5.40;69.49;93884.13;4200439;28;20044;-67
2024/01/18 01:30:02;;;;;;;22.60;17.90;;;;;;;5.47;69.59;93877.41;4200312;28;20048;-67
2024/01/18 01:32:05;;;;;;;24.55;18.63;;;;;;;5.44;69.40;93880.28;4202484;28;20051;-67
2024/01/18 01:34:07;;;;;;;26.02;18.02;;;;;;;5.31;70.31;93891.84;4206033;28;20063;-66
2024/01/18 01:36:09;;;;;;;22.35;17.98;;;;;;;4.99;70.90;93889.72;4207953;28;20070;-66
2024/01/18 01:38:11;;;;;;;22.73;18.15;;;;;;;4.93;71.50;93903.28;4200474;28;20499;-66
2024/01/18 01:40:12;;;;;;;24.02;17.63;;;;;;;5.06;71.35;93902.94;4202142;28;20055;-66
2024/01/18 01:42:14;;;;;;;23.35;18.15;;;;;;;5.16;71.70;93897.69;4200783;28;20157;-64
2024/01/18 01:44:16;;;;;;;22.13;17.55;;;;;;;4.95;71.83;93871.97;4201025;28;20149;-65
2024/01/18 01:46:19;;;;;;;22.05;18.58;;;;;;;5.05;71.76;93885.72;4196004;28;20064;-68
2024/01/18 01:48:21;;;;;;;22.73;18.00;;;;;;;4.99;72.16;93853.38;4201068;28;20584;-68
2024/01/18 01:50:23;;;;;;;21.77;17.85;;;;;;;5.13;72.60;93878.03;4205226;28;20060;-67
2024/01/18 01:52:27;;;;;;;23.92;18.17;;;;;;;5.22;71.86;93866.75;4197154;28;20083;-68
2024/01/18 01:54:29;;;;;;;22.10;17.38;;;;;;;5.22;71.75;93874.53;4196891;28;20059;-66
2024/01/18 01:56:33;;;;;;;25.10;17.70;;;;;;;5.19;72.72;93869.66;4202719;28;20466;-67
2024/01/18 01:58:36;;;;;;;23.30;18.27;;;;;;;5.25;71.75;93865.66;4197894;28;20136;-67
2024/01/18 02:00:38;;;;;;;24.48;17.70;;;;;;;5.20;70.65;93840.13;4207785;28;20541;-66
2024/01/18 02:02:41;;;;;;;24.25;17.83;;;;;;;4.99;72.44;93852.53;4207987;28;20386;-69
2024/01/18 02:04:43;;;;;;;21.20;17.52;;;;;;;5.02;72.67;93857.47;4206191;28;20131;-65
2024/01/18 02:06:46;;;;;;;23.10;17.70;;;;;;;5.11;71.24;93853.97;4194366;28;20258;-66
2024/01/18 02:08:49;;;;;;;20.52;17.13;;;;;;;5.12;71.32;93871.22;4199808;28;20045;-68
2024/01/18 02:10:51;;;;;;;21.05;17.25;;;;;;;5.09;71.30;93851.53;4195804;28;20130;-69
2024/01/18 02:12:54;;;;;;;21.35;16.50;;;;;;;5.09;72.48;93861.09;4198017;28;20477;-67
2024/01/18 02:14:56;;;;;;;21.30;16.77;;;;;;;5.24;71.85;93864.81;4203106;28;20052;-65
2024/01/18 02:16:58;;;;;;;22.83;17.20;;;;;;;5.34;71.45;93856.97;4205106;28;20052;-66
2024/01/18 02:19:02;;;;;;;21.85;17.30;;;;;;;5.42;72.08;93857.06;4196572;28;20052;-67
2024/01/18 02:21:07;;;;;;;23.33;18.27;;;;;;;5.53;71.50;93837.84;4194234;28;20044;-68
2024/01/18 02:23:11;;;;;;;24.27;17.55;;;;;;;5.52;70.82;93841.38;4193593;28;20510;-64
2024/01/18 02:25:17;;;;;;;22.95;17.38;;;;;;;5.48;70.99;93837.44;4197556;28;20154;-66
2024/01/18 02:27:20;;;;;;;23.63;16.83;;;;;;;5.47;71.00;93857.41;4202873;28;20064;-71
2024/01/18 02:29:22;;;;;;;23.92;17.77;;;;;;;5.44;71.72;93843.91;4192012;28;20120;-66
2024/01/18 02:31:24;;;;;;;21.40;15.93;;;;;;;5.53;70.54;93822.25;4203985;28;20467;-65
2024/01/18 02:33:26;;;;;;;23.92;16.90;;;;;;;5.43;70.26;93830.09;4200228;28;20131;-66
2024/01/18 02:35:28;;;;;;;22.23;17.15;;;;;;;5.44;72.35;93839.53;4199857;28;20059;-67
2024/01/18 02:37:30;;;;;;;21.80;17.50;;;;;;;5.49;71.48;93831.31;4198547;28;20052;-66
2024/01/18 02:39:32;;;;;;;21.52;16.15;;;;;;;5.22;71.65;93812.22;4200904;28;20154;-65
2024/01/18 02:41:35;;;;;;;22.30;17.95;;;;;;;4.72;74.03;93804.91;4198961;28;20078;-64
2024/01/18 02:43:37;;;;;;;20.13;17.00;;;;;;;4.89;74.39;93819.69;4192983;28;20138;-66
2024/01/18 02:45:41;;;;;;;21.58;17.30;;;;;;;4.90;73.59;93816.16;4199266;28;20056;-67
2024/01/18 02:47:43;;;;;;;23.92;18.35;;;;;;;4.88;74.26;93797.31;4199051;28;20127;-65
2024/01/18 02:49:45;;;;;;;21.95;17.85;;;;;;;5.02;73.37;93803.75;4193397;28;20455;-66
2024/01/18 02:51:47;;;;;;;21.27;17.15;;;;;;;5.07;72.39;93800.72;4192559;28;20049;-67
2024/01/18 02:53:49;;;;;;;22.23;17.02;;;;;;;5.16;71.51;93806.81;4191677;28;20053;-68
2024/01/18 02:55:51;;;;;;;22.10;18.20;;;;;;;5.01;71.95;93788.31;4199501;28;20134;-66
2024/01/18 02:57:53;;;;;;;22.15;17.38;;;;;;;4.76;73.31;93824.41;4191215;28;20150;-67
2024/01/18 02:59:56;;;;;;;21.08;17.25;;;;;;;4.88;73.63;93843.19;4201441;28;20044;-65
2024/01/18 03:02:01;;;;;;;21.05;16.92;;;;;;;4.69;73.64;93805.22;4195373;28;20530;-67
2024/01/18 03:04:03;;;;;;;22.27;17.83;;;;;;;4.70;74.04;93818.03;4205103;28;20036;-67
2024/01/18 03:06:06;;;;;;;21.40;16.42;;;;;;;4.83;74.22;93804.69;4203347;28;20052;-67
2024/01/18 03:08:08;;;;;;;21.77;16.77;;;;;;;4.80;72.72;93793.81;4203859;28;20128;-66
2024/01/18 03:10:10;;;;;;;20.50;16.40;;;;;;;4.88;72.68;93791.28;4197510;28;20135;-68
2024/01/18 03:12:12;;;;;;;20.77;16.05;;;;;;;4.77;72.62;93802.69;4206056;28;20088;-67
2024/01/18 03:14:13;;;;;;;21.27;16.98;;;;;;;4.81;73.18;93814.41;4204009;28;20052;-65
2024/01/18 03:16:15;;;;;;;21.48;16.92;;;;;;;4.84;72.89;93805.50;4206601;28;20048;-66
2024/01/18 03:18:17;;;;;;;23.13;18.08;;;;;;;4.62;72.41;93807.53;4198465;28;20063;-67
2024/01/18 03:20:19;;;;;;;22.85;17.20;;;;;;;4.60;72.66;93813.84;4207089;28;20060;-67
2024/01/18 03:22:21;;;;;;;21.50;17.25;;;;;;;4.72;74.56;93825.66;4195601;28;20052;-66
2024/01/18 03:24:23;;;;;;;23.10;17.80;;;;;;;4.80;74.36;93786.84;4197103;28;20587;-66
2024/01/18 03:26:25;;;;;;;22.52;17.73;;;;;;;4.29;73.51;93790.78;4201697;28;20098;-68
2024/01/18 03:28:27;;;;;;;21.65;18.40;;;;;;;4.30;74.54;93808.81;4196368;28;20124;-66
2024/01/18 03:30:29;;;;;;;20.58;17.77;;;;;;;4.47;74.44;93822.78;4200431;28;20108;-68
2024/01/18 03:32:30;;;;;;;23.15;18.33;;;;;;;4.59;74.03;93814.81;4199945;28;20048;-67
2024/01/18 03:34:32;;;;;;;22.45;18.02;;;;;;;4.31;74.66;93802.66;4208504;28;20052;-67
2024/01/18 03:36:34;;;;;;;24.15;18.88;;;;;;;4.29;75.62;93814.13;4204095;28;20169;-65
2024/01/18 03:38:36;;;;;;;22.58;18.75;;;;;;;4.46;75.11;93833.31;4200356;28;20166;-66
2024/01/18 03:40:38;;;;;;;19.95;17.00;;;;;;;4.59;73.34;93788.88;4209502;28;20380;-66
2024/01/18 03:42:43;;;;;;;22.17;18.17;;;;;;;4.15;74.23;93799.03;4206404;28;20502;-67
2024/01/18 03:44:45;;;;;;;21.67;17.65;;;;;;;4.33;74.99;93809.47;4201519;28;20071;-66
2024/01/18 03:46:47;;;;;;;21.55;18.23;;;;;;;4.53;74.39;93794.63;4202502;28;20458;-65
2024/01/18 03:48:48;;;;;;;24.33;19.05;;;;;;;4.65;73.89;93799.50;4199850;28;20421;-66
2024/01/18 03:50:50;;;;;;;22.30;18.60;;;;;;;4.63;73.81;93806.59;4199537;28;20118;-67
2024/01/18 03:52:52;;;;;;;23.08;18.40;;;;;;;4.59;73.08;93801.84;4195253;28;20135;-67
2024/01/18 03:54:55;;;;;;;22.63;17.40;;;;;;;4.66;73.44;93795.91;4195254;28;20048;-66
2024/01/18 03:56:57;;;;;;;20.90;17.98;;;;;;;4.83;73.34;93814.28;4194532;28;20153;-66
2024/01/18 03:59:01;;;;;;;20.33;17.52;;;;;;;4.79;72.61;93798.16;4198246;28;20048;-66
2024/01/18 04:01:03;;;;;;;22.25;17.70;;;;;;;4.68;73.29;93811.34;4202387;28;20049;-66
2024/01/18 04:03:05;;;;;;;22.15;17.50;;;;;;;4.81;72.38;93806.63;4197262;28;20071;-66
2024/01/18 04:05:07;;;;;;;22.35;17.90;;;;;;;4.73;72.49;93803.94;4207046;28;20083;-67
2024/01/18 04:07:10;;;;;;;23.30;17.75;;;;;;;4.77;73.89;93812.25;4200973;28;20127;-66
2024/01/18 04:09:12;;;;;;;23.95;18.73;;;;;;;4.57;73.38;93801.97;4199482;28;20146;-67
2024/01/18 04:11:14;;;;;;;24.27;18.88;;;;;;;4.70;74.29;93812.81;4196158;28;20538;-67
2024/01/18 04:13:15;;;;;;;24.35;17.58;;;;;;;4.83;72.83;93825.47;4199655;28;20419;-69
2024/01/18 04:15:20;;;;;;;23.38;18.38;;;;;;;4.96;72.27;93808.72;4202480;28;20072;-66
2024/01/18 04:17:22;;;;;;;21.70;18.10;;;;;;;4.44;73.81;93794.53;4203102;28;20090;-66
2024/01/18 04:19:24;;;;;;;31.52;25.23;;;;;;;4.06;74.72;93800.69;4203574;28;20068;-67
2024/01/18 04:21:26;;;;;;;24.48;20.42;;;;;;;4.17;75.34;93815.25;4193913;28;20137;-66
2024/01/18 04:23:28;;;;;;;24.25;19.52;;;;;;;4.30;75.37;93813.16;4200598;28;20095;-66
2024/01/18 04:25:30;;;;;;;24.80;19.05;;;;;;;4.54;74.54;93817.00;4202290;28;20052;-66
2024/01/18 04:27:32;;;;;;;23.13;19.20;;;;;;;4.79;73.28;93818.13;4201007;28;20052;-67
2024/01/18 04:29:34;;;;;;;23.17;18.90;;;;;;;4.89;73.00;93843.03;4197415;28;20105;-68
2024/01/18 04:31:36;;;;;;;25.25;19.15;;;;;;;4.98;72.20;93805.00;4208983;28;20051;-67
2024/01/18 04:33:38;;;;;;;25.83;19.77;;;;;;;4.53;73.55;93808.41;4205454;28;20060;-66
2024/01/18 04:35:40;;;;;;;24.60;20.20;;;;;;;4.58;73.79;93841.69;4203976;28;20120;-68
2024/01/18 04:37:41;;;;;;;25.98;19.42;;;;;;;4.69;73.46;93829.38;4199301;28;20055;-66
2024/01/18 04:39:43;;;;;;;22.15;18.02;;;;;;;4.40;73.76;93798.38;4205015;28;20536;-67
2024/01/18 04:41:45;;;;;;;21.27;18.50;;;;;;;4.47;73.50;93835.75;4195607;28;20052;-68
2024/01/18 04:43:47;;;;;;;20.40;18.02;;;;;;;4.59;73.51;93805.25;4193064;28;20045;-66
2024/01/18 04:45:49;;;;;;;22.63;17.67;;;;;;;4.22;73.80;93776.78;4201234;28;20467;-67
2024/01/18 04:47:56;;;;;;;23.13;18.17;;;;;;;4.09;74.96;93785.69;4208137;28;20444;-67
2024/01/18 04:49:58;;;;;;;22.38;17.58;;;;;;;4.19;75.02;93800.38;4203387;28;20055;-69
2024/01/18 04:52:00;;;;;;;22.02;17.88;;;;;;;4.32;75.14;93837.16;4206932;28;20383;-66
2024/01/18 04:54:02;;;;;;;24.60;18.90;;;;;;;4.43;74.27;93789.47;4208147;28;20533;-67
2024/01/18 04:56:05;;;;;;;23.83;18.10;;;;;;;4.40;74.85;93798.38;4194844;28;20470;-67
2024/01/18 04:58:08;;;;;;;22.88;18.10;;;;;;;4.55;74.38;93803.09;4198688;28;20184;-67
2024/01/18 05:00:10;;;;;;;25.45;18.95;;;;;;;4.70;74.00;93812.03;4201365;28;20411;-67
2024/01/18 05:02:13;;;;;;;22.90;17.33;;;;;;;4.37;73.70;93795.28;4208997;28;20047;-69
2024/01/18 05:04:14;;;;;;;23.10;18.98;;;;;;;4.48;74.27;93814.03;4204100;28;20055;-68
2024/01/18 05:06:17;;;;;;;22.27;18.85;;;;;;;4.44;74.48;93794.53;4198465;28;20091;-67
2024/01/18 05:08:19;;;;;;;25.83;18.27;;;;;;;4.36;74.19;93781.47;4198378;28;20059;-69
2024/01/18 05:10:21;;;;;;;23.77;19.20;;;;;;;4.28;74.96;93812.47;4201283;28;20136;-68
2024/01/18 05:12:23;;;;;;;24.60;18.25;;;;;;;4.44;74.82;93832.63;4194119;28;20048;-68
2024/01/18 05:14:25;;;;;;;23.33;19.73;;;;;;;4.63;74.22;93822.16;4206410;28;20572;-66
2024/01/18 05:16:27;;;;;;;22.13;18.08;;;;;;;4.68;73.42;93826.91;4203408;28;20075;-68
2024/01/18 05:18:29;;;;;;;24.40;18.88;;;;;;;4.81;73.05;93821.38;4199905;28;20067;-66
2024/01/18 05:20:32;;;;;;;24.25;19.75;;;;;;;4.77;72.52;93802.69;4194242;28;20355;-66
2024/01/18 05:22:34;;;;;;;23.52;19.45;;;;;;;4.91;73.65;93816.97;4200566;28;20062;-67
2024/01/18 05:24:36;;;;;;;24.45;17.92;;;;;;;5.09;73.30;93815.19;4205325;28;20673;-67
2024/01/18 05:26:38;;;;;;;21.80;18.83;;;;;;;4.99;72.19;93824.84;4201247;28;20093;-66
2024/01/18 05:28:40;;;;;;;24.92;19.42;;;;;;;5.13;72.52;93823.50;4203226;28;20542;-67
2024/01/18 05:30:42;;;;;;;23.40;18.88;;;;;;;5.00;71.61;93828.25;4202224;28;20055;-69
2024/01/18 05:32:43;;;;;;;21.83;18.08;;;;;;;5.03;72.48;93841.72;4191447;28;20052;-67
2024/01/18 05:34:49;;;;;;;22.92;18.70;;;;;;;4.97;71.69;93821.56;4192992;28;20449;-67
2024/01/18 05:36:51;;;;;;;24.88;17.98;;;;;;;5.04;72.38;93834.78;4202996;28;20056;-68
2024/01/18 05:38:53;;;;;;;21.83;17.75;;;;;;;5.08;71.87;93836.13;4203513;28;20098;-66
2024/01/18 05:40:54;;;;;;;21.13;17.70;;;;;;;5.23;72.56;93829.44;4196637;28;20135;-68
2024/01/18 05:42:56;;;;;;;24.27;18.50;;;;;;;4.96;72.46;93813.91;4207260;28;20066;-67
2024/01/18 05:44:59;;;;;;;23.45;18.52;;;;;;;5.02;72.56;93815.94;4203754;28;20048;-66
2024/01/18 05:47:01;;;;;;;22.40;18.23;;;;;;;5.16;72.16;93840.56;4202054;28;20060;-67
2024/01/18 05:49:03;;;;;;;24.10;19.13;;;;;;;4.90;72.43;93815.31;4200910;28;20071;-69
2024/01/18 05:51:05;;;;;;;25.02;19.40;;;;;;;5.05;73.57;93823.41;4205532;28;20125;-65
2024/01/18 05:53:08;;;;;;;26.65;18.23;;;;;;;5.14;72.22;93825.13;4198249;28;20510;-67
2024/01/18 05:55:10;;;;;;;24.25;19.23;;;;;;;5.19;72.36;93830.69;4196130;28;20067;-69
2024/01/18 05:57:12;;;;;;;25.17;19.35;;;;;;;5.13;72.51;93815.72;4201496;28;20113;-67
2024/01/18 05:59:14;;;;;;;25.85;20.65;;;;;;;5.17;72.55;93834.41;4207447;28;20054;-67
2024/01/18 06:01:16;;;;;;;27.70;19.10;;;;;;;5.02;72.39;93836.69;4204768;28;20052;-66
2024/01/18 06:03:18;;;;;;;26.05;20.05;;;;;;;4.76;73.90;93819.22;4197142;28;20055;-69
2024/01/18 06:05:20;;;;;;;25.70;19.90;;;;;;;4.90;73.62;93826.53;4196898;28;20077;-69
2024/01/18 06:07:23;;;;;;;26.73;19.98;;;;;;;5.05;73.18;93836.38;4202153;28;20109;-68
2024/01/18 06:09:25;;;;;;;27.90;20.08;;;;;;;5.19;73.02;93825.50;4206585;28;20480;-69
2024/01/18 06:11:26;;;;;;;26.23;19.67;;;;;;;5.12;72.92;93795.91;4203117;28;20458;-68
2024/01/18 06:13:28;;;;;;;24.52;20.05;;;;;;;4.93;73.66;93831.41;4201189;28;20134;-69
2024/01/18 06:15:30;;;;;;;25.30;19.92;;;;;;;5.06;74.19;93830.25;4195782;28;20499;-67
2024/01/18 06:17:32;;;;;;;24.35;19.08;;;;;;;5.21;73.85;93827.97;4205713;28;20549;-69
2024/01/18 06:19:35;;;;;;;23.25;19.38;;;;;;;5.30;72.64;93825.28;4199578;28;20141;-68
2024/01/18 06:21:37;;;;;;;24.50;18.45;;;;;;;5.34;73.16;93825.81;4200276;28;20175;-68
2024/01/18 06:23:42;;;;;;;24.43;19.97;;;;;;;5.44;72.88;93817.94;4200842;28;20065;-67
2024/01/18 06:25:44;;;;;;;22.73;18.73;;;;;;;5.51;72.81;93832.78;4202933;28;20044;-67
2024/01/18 06:27:46;;;;;;;20.85;17.60;;;;;;;5.53;73.15;93843.84;4206048;28;20044;-69
2024/01/18 06:29:48;;;;;;;20.40;17.10;;;;;;;5.70;73.52;93839.59;4203191;28;20449;-68
2024/01/18 06:31:50;;;;;;;21.77;16.77;;;;;;;5.82;72.21;93837.56;4193313;28;20549;-70
2024/01/18 06:33:53;;;;;;;20.45;16.45;;;;;;;5.83;72.03;93834.00;4190538;28;20083;-70
2024/01/18 06:35:56;;;;;;;23.30;16.50;;;;;;;5.86;72.46;93823.31;4208216;28;20052;-66
2024/01/18 06:37:58;;;;;;;21.38;17.60;;;;;;;5.82;72.37;93811.56;4196059;28;20049;-69
2024/01/18 06:40:00;;;;;;;21.80;16.08;;;;;;;5.84;73.18;93816.63;4199490;28;20044;-69
2024/01/18 06:42:03;;;;;;;19.23;14.45;;;;;;;5.96;72.20;93812.84;4198861;28;20052;-68
2024/01/18 06:44:05;;;;;;;20.63;15.30;;;;;;;5.95;72.91;93793.81;4198930;28;20050;-68
2024/01/18 06:46:16;;;;;;;18.92;14.48;;;;;;;5.90;73.27;93787.44;4194790;28;20131;-69
2024/01/18 06:48:17;;;;;;;16.23;13.73;;;;;;;5.95;73.49;93816.41;4201767;28;20104;-67
2024/01/18 06:50:19;;;;;;;16.35;12.65;;;;;;;6.06;72.92;93810.13;4192746;28;20147;-67
2024/01/18 06:52:22;;;;;;;15.35;12.93;;;;;;;5.94;73.07;93792.19;4198950;28;20088;-68
2024/01/18 06:54:24;;;;;;;17.42;13.20;;;;;;;5.94;73.83;93805.19;4202615;28;20077;-67
2024/01/18 06:56:26;;;;;;;16.52;12.90;;;;;;;6.03;73.76;93819.06;4202146;28;20044;-67
2024/01/18 06:58:28;;;;;;;14.48;11.90;;;;;;;5.85;73.72;93779.25;4202482;28;20437;-69
2024/01/18 07:00:30;;;;;;;15.93;11.82;;;;;;;5.85;73.96;93790.50;4197029;28;20044;-67
2024/01/18 07:02:33;;;;;;;14.02;11.75;;;;;;;5.98;74.08;93804.88;4199368;28;20175;-67
2024/01/18 07:04:35;;;;;;;15.73;10.70;;;;;;;6.17;73.79;93790.84;4199008;28;20094;-68
2024/01/18 07:06:37;;;;;;;15.35;11.27;;;;;;;6.03;73.71;93772.25;4205123;28;20048;-68
2024/01/18 07:08:40;;;;;;;15.07;12.18;;;;;;;6.11;73.74;93764.50;4203974;28;20048;-69
2024/01/18 07:10:47;;;;;;;14.65;12.40;;;;;;;6.20;73.79;93767.97;4199872;28;20400;-67
2024/01/18 07:12:49;;;;;;;13.48;11.13;;;;;;;6.39;73.39;93789.50;4202499;28;20132;-67
2024/01/18 07:14:51;;;;;;;14.10;10.63;;;;;;;6.51;73.06;93776.03;4198204;28;20542;-68
2024/01/18 07:16:55;;;;;;;14.70;11.65;;;;;;;6.33;73.29;93742.31;4200777;28;20391;-67
2024/01/18 07:18:56;;;;;;;16.10;10.70;;;;;;;6.36;72.93;93746.41;4202392;28;20131;-67
2024/01/18 07:20:58;;;;;;;14.65;11.25;;;;;;;6.38;72.83;93725.44;4190994;28;20131;-68
2024/01/18 07:23:00;;;;;;;14.63;11.10;;;;;;;6.37;73.52;93729.84;4192134;28;20044;-67
2024/01/18 07:25:05;;;;;;;14.88;12.20;;;;;;;6.51;73.17;93712.78;4204971;28;20314;-67
2024/01/18 07:27:09;;;;;;;14.25;10.88;;;;;;;6.50;72.68;93680.75;4204976;28;20113;-69
2024/01/18 07:29:11;;;;;;;13.95;10.70;;;;;;;6.17;73.97;93664.22;4195064;28;20135;-71
2024/01/18 07:31:14;;;;;;;15.27;11.25;;;;;;;6.28;73.93;93689.97;4199775;28;20044;-67
2024/01/18 07:33:16;;;;;;;14.50;11.23;;;;;;;6.32;74.08;93675.69;4195644;28;20040;-66
2024/01/18 07:35:18;;;;;;;16.33;11.43;;;;;;;6.35;74.30;93674.56;4197740;28;20673;-68
2024/01/18 07:37:20;;;;;;;15.27;11.02;;;;;;;6.50;74.05;93680.75;4195111;28;20418;-67
2024/01/18 07:39:22;;;;;;;17.35;11.25;;;;;;;6.69;73.02;93673.63;4198733;28;20136;-70
2024/01/18 07:41:25;;;;;;;16.17;10.82;;;;;;;6.55;73.38;93657.66;4196218;28;20105;-66
2024/01/18 07:43:27;;;;;;;15.93;12.48;;;;;;;6.68;73.33;93661.59;4192790;28;20366;-68
2024/01/18 07:45:29;;;;;;;16.88;12.00;;;;;;;6.80;72.87;93660.31;4190952;28;20049;-69
2024/01/18 07:47:31;;;;;;;17.38;12.38;;;;;;;6.82;72.00;93653.16;4192614;28;20504;-68
2024/01/18 07:49:32;;;;;;;15.95;12.10;;;;;;;6.91;72.09;93667.81;4204281;28;20044;-71
2024/01/18 07:51:34;;;;;;;19.15;14.00;;;;;;;6.70;71.88;93646.63;4202364;28;20136;-70
2024/01/18 07:53:36;;;;;;;19.60;14.02;;;;;;;6.52;72.60;93629.38;4197197;28;20048;-67
2024/01/18 07:55:38;;;;;;;19.85;15.00;;;;;;;6.54;72.74;93650.03;4204499;28;20199;-69
2024/01/18 07:57:40;;;;;;;17.40;14.00;;;;;;;6.70;72.81;93644.84;4201270;28;20426;-70
2024/01/18 07:59:42;;;;;;;20.38;15.27;;;;;;;6.62;72.35;93636.22;4192094;28;20091;-67
2024/01/18 08:01:45;;;;;;;18.65;14.55;;;;;;;6.39;73.32;93631.63;4193714;28;20049;-66
2024/01/18 08:03:47;;;;;;;16.80;14.98;;;;;;;6.24;74.48;93634.03;4202375;28;20047;-67
2024/01/18 08:05:49;;;;;;;21.15;14.35;;;;;;;6.27;74.33;93638.91;4209350;28;20581;-70
2024/01/18 08:07:51;;;;;;;17.70;14.50;;;;;;;6.15;74.46;93604.59;4206062;28;20063;-69
2024/01/18 08:09:53;;;;;;;19.20;15.95;;;;;;;6.17;75.08;93621.81;4193840;28;20116;-67
2024/01/18 08:11:55;;;;;;;18.88;16.02;;;;;;;6.23;74.96;93642.00;4206035;28;20056;-69
2024/01/18 08:13:57;;;;;;;20.98;15.45;;;;;;;6.25;73.71;93629.66;4201074;28;20049;-66
2024/01/18 08:15:59;;;;;;;20.55;15.43;;;;;;;6.44;73.88;93636.38;4205693;28;20066;-69
2024/01/18 08:18:01;;;;;;;23.42;15.57;;;;;;;6.24;73.55;93622.81;4204455;28;20542;-68
2024/01/18 08:20:13;;;;;;;19.25;16.25;;;;;;;6.02;74.22;93629.41;4209513;28;20522;-68
2024/01/18 08:22:18;;;;;;;19.48;16.05;;;;;;;6.28;74.29;93629.31;4203694;28;20040;-68
2024/01/18 08:24:20;;;;;;;;;;;;;;;6.10;73.40;93596.44;4206812;28;20052;-68
2024/01/18 08:26:22;;;;;;;23.20;17.13;;;;;;;5.86;74.70;93606.75;4198008;28;19927;-69
2024/01/18 08:28:23;;;;;;;21.30;16.80;;;;;;;5.97;74.75;93629.88;4202763;28;20172;-72
2024/01/18 08:30:25;;;;;;;25.55;18.58;;;;;;;6.10;74.70;93625.06;4202102;28;20521;-70
2024/01/18 08:32:31;;;;;;;24.77;18.48;;;;;;;6.15;73.71;93615.00;4197875;28;20277;-69
2024/01/18 08:34:35;;;;;;;25.75;18.30;;;;;;;6.15;73.81;93611.56;4197792;28;20151;-67
2024/01/18 08:36:37;;;;;;;23.38;18.23;;;;;;;6.17;74.20;93642.63;4202021;28;20055;-69
2024/01/18 08:38:39;;;;;;;23.92;18.67;;;;;;;6.34;73.23;93603.47;4192986;28;20036;-68
2024/01/18 08:40:41;;;;;;;24.90;19.60;;;;;;;6.41;73.62;93608.03;4194566;28;20048;-66
2024/01/18 08:42:45;;;;;;;24.30;19.40;;;;;;;6.36;72.93;93609.34;4201096;28;20147;-65
2024/01/18 08:44:48;;;;;;;25.55;19.25;;;;;;;5.97;74.43;93622.09;4195339;28;20056;-69
2024/01/18 08:46:49;;;;;;;27.77;20.65;;;;;;;6.11;74.08;93634.50;4193810;28;20083;-68
2024/01/18 08:48:51;;;;;;;26.00;19.52;;;;;;;6.13;74.14;93606.53;4204474;28;20710;-67
2024/01/18 08:50:54;;;;;;;25.65;19.42;;;;;;;6.11;73.70;93573.88;4204071;28;20059;-68
2024/01/18 08:52:56;;;;;;;30.85;22.52;;;;;;;5.99;74.97;93620.16;4206689;28;20044;-66
2024/01/18 08:54:58;;;;;;;28.08;20.90;;;;;;;6.13;74.95;93621.31;4202206;28;20545;-69
2024/01/18 08:57:02;;;;;;;31.33;20.88;;;;;;;6.18;74.63;93603.47;4194623;28;20060;-71
2024/01/18 08:59:04;;;;;;;23.75;19.38;;;;;;;6.40;74.28;93628.06;4194733;28;20578;-71
2024/01/18 09:01:06;;;;;;;22.73;18.73;;;;;;;6.61;74.25;93616.38;4195859;28;20166;-68
2024/01/18 09:03:08;;;;;;;29.85;22.33;;;;;;;6.50;73.41;93599.31;4199133;28;20077;-70
2024/01/18 09:05:09;;;;;;;28.67;20.08;;;;;;;6.63;73.63;93632.66;4193546;28;20127;-70
2024/01/18 09:07:11;;;;;;;24.20;18.95;;;;;;;6.67;73.35;93623.56;4203470;28;20119;-71
2024/01/18 09:09:13;;;;;;;25.83;19.90;;;;;;;6.54;73.14;93600.59;4202313;28;20473;-71
2024/01/18 09:11:15;;;;;;;27.10;19.02;;;;;;;6.70;73.57;93615.41;4200388;28;20129;-69
2024/01/18 09:13:17;;;;;;;25.98;19.83;;;;;;;6.66;73.54;93588.88;4198599;28;20053;-68
2024/01/18 09:15:22;;;;;;;26.77;19.77;;;;;;;6.72;74.00;93616.88;4197402;28;20497;-69
2024/01/18 09:17:23;;;;;;;25.13;18.27;;;;;;;6.86;73.74;93622.41;4204641;28;20048;-69
2024/01/18 09:19:25;;;;;;;22.80;17.42;;;;;;;7.02;72.39;93572.94;4200472;28;20088;-68
2024/01/18 09:21:27;;;;;;;38.58;21.83;;;;;;;6.76;73.69;93592.16;4206654;28;20052;-68
2024/01/18 09:23:29;;;;;;;33.78;20.67;;;;;;;6.96;72.76;93623.84;4198181;28;20110;-70
2024/01/18 09:25:31;;;;;;;27.20;20.65;;;;;;;7.12;72.37;93584.00;4200816;28;20048;-70
2024/01/18 09:27:33;;;;;;;24.20;16.70;;;;;;;7.13;73.33;93545.72;4208472;28;20056;-70
2024/01/18 09:29:36;;;;;;;18.15;13.73;;;;;;;7.29;73.64;93540.50;4205677;28;20040;-70